sensor_id;sensor_type;location;lat;lon;timestamp;pressure;altitude;pressure_sealevel;temperature;humidity
76352;BME280;65179;47.786;19.138;2023-12-28T00:00:29;101199.97;;;3.29;93.87
76352;BME280;65179;47.786;19.138;2023-12-28T00:02:55;101203.34;;;3.31;94.03
76352;BME280;65179;47.786;19.138;2023-12-28T00:05:21;101200.50;;;3.32;93.68
76352;BME280;65179;47.786;19.138;2023-12-28T00:07:46;101214.38;;;3.10;94.59
76352;BME280;65179;47.786;19.138;2023-12-28T00:10:12;101208.75;;;3.03;94.48
76352;BME280;65179;47.786;19.138;2023-12-28T00:12:37;101217.72;;;2.77;94.90
76352;BME280;65179;47.786;19.138;2023-12-28T00:15:03;101209.06;;;2.83;94.41
76352;BME280;65179;47.786;19.138;2023-12-28T00:17:28;101209.50;;;2.78;94.14
76352;BME280;65179;47.786;19.138;2023-12-28T00:19:56;101224.31;;;2.55;94.84
76352;BME280;65179;47.786;19.138;2023-12-28T00:22:22;101219.72;;;2.65;94.40
76352;BME280;65179;47.786;19.138;2023-12-28T00:24:47;101233.34;;;2.54;94.65
76352;BME280;65179;47.786;19.138;2023-12-28T00:27:12;101231.66;;;2.53;94.45
76352;BME280;65179;47.786;19.138;2023-12-28T00:29:38;101222.94;;;2.51;94.27
76352;BME280;65179;47.786;19.138;2023-12-28T00:32:06;101229.09;;;2.52;94.09
76352;BME280;65179;47.786;19.138;2023-12-28T00:34:32;101231.94;;;2.50;93.85
76352;BME280;65179;47.786;19.138;2023-12-28T00:36:58;101240.22;;;2.29;94.47
76352;BME280;65179;47.786;19.138;2023-12-28T00:39:23;101233.41;;;2.35;94.10
76352;BME280;65179;47.786;19.138;2023-12-28T00:41:51;101235.34;;;2.43;93.98
76352;BME280;65179;47.786;19.138;2023-12-28T00:44:19;101233.16;;;2.28;94.60
76352;BME280;65179;47.786;19.138;2023-12-28T00:46:44;101229.19;;;2.33;94.09
76352;BME280;65179;47.786;19.138;2023-12-28T00:49:10;101226.94;;;2.28;93.89
76352;BME280;65179;47.786;19.138;2023-12-28T00:51:35;101226.22;;;2.36;94.98
76352;BME280;65179;47.786;19.138;2023-12-28T00:54:01;101231.16;;;2.40;95.25
76352;BME280;65179;47.786;19.138;2023-12-28T00:56:30;101240.09;;;2.58;94.83
76352;BME280;65179;47.786;19.138;2023-12-28T00:58:55;101236.31;;;2.78;95.59
76352;BME280;65179;47.786;19.138;2023-12-28T01:01:21;101227.75;;;2.92;95.44
76352;BME280;65179;47.786;19.138;2023-12-28T01:03:46;101230.56;;;3.00;95.62
76352;BME280;65179;47.786;19.138;2023-12-28T01:06:12;101233.25;;;3.00;95.55
76352;BME280;65179;47.786;19.138;2023-12-28T01:08:37;101225.47;;;2.97;94.73
76352;BME280;65179;47.786;19.138;2023-12-28T01:11:03;101232.78;;;3.05;95.55
76352;BME280;65179;47.786;19.138;2023-12-28T01:13:29;101230.56;;;3.00;95.16
76352;BME280;65179;47.786;19.138;2023-12-28T01:15:55;101239.97;;;3.04;94.38
76352;BME280;65179;47.786;19.138;2023-12-28T01:18:21;101235.34;;;2.97;95.41
76352;BME280;65179;47.786;19.138;2023-12-28T01:20:46;101232.34;;;2.82;94.37
76352;BME280;65179;47.786;19.138;2023-12-28T01:23:12;101228.06;;;2.89;94.98
76352;BME280;65179;47.786;19.138;2023-12-28T01:25:37;101234.53;;;2.96;94.89
76352;BME280;65179;47.786;19.138;2023-12-28T01:28:03;101233.94;;;3.02;95.37
76352;BME280;65179;47.786;19.138;2023-12-28T01:30:29;101231.62;;;3.07;94.84
76352;BME280;65179;47.786;19.138;2023-12-28T01:32:55;101234.28;;;3.07;94.99
76352;BME280;65179;47.786;19.138;2023-12-28T01:35:20;101228.94;;;3.07;95.42
76352;BME280;65179;47.786;19.138;2023-12-28T01:37:45;101216.59;;;3.15;95.30
76352;BME280;65179;47.786;19.138;2023-12-28T01:40:11;101223.66;;;3.16;95.15
76352;BME280;65179;47.786;19.138;2023-12-28T01:42:37;101206.56;;;3.17;95.03
76352;BME280;65179;47.786;19.138;2023-12-28T01:45:02;101213.31;;;3.21;95.04
76352;BME280;65179;47.786;19.138;2023-12-28T01:47:28;101209.78;;;3.20;94.84
76352;BME280;65179;47.786;19.138;2023-12-28T01:49:55;101207.94;;;3.21;94.94
76352;BME280;65179;47.786;19.138;2023-12-28T01:52:21;101201.88;;;3.19;94.92
76352;BME280;65179;47.786;19.138;2023-12-28T01:54:47;101206.72;;;3.15;95.82
76352;BME280;65179;47.786;19.138;2023-12-28T01:57:13;101208.88;;;3.12;95.34
76352;BME280;65179;47.786;19.138;2023-12-28T01:59:40;101198.81;;;3.14;95.31
76352;BME280;65179;47.786;19.138;2023-12-28T02:02:06;101197.28;;;3.11;95.70
76352;BME280;65179;47.786;19.138;2023-12-28T02:04:32;101198.44;;;3.08;95.36
76352;BME280;65179;47.786;19.138;2023-12-28T02:07:00;101203.97;;;3.07;95.38
76352;BME280;65179;47.786;19.138;2023-12-28T02:09:26;101193.84;;;3.01;95.76
76352;BME280;65179;47.786;19.138;2023-12-28T02:11:52;101194.66;;;3.01;95.42
76352;BME280;65179;47.786;19.138;2023-12-28T02:14:18;101198.47;;;2.99;95.57
76352;BME280;65179;47.786;19.138;2023-12-28T02:16:59;101184.38;;;2.97;95.50
76352;BME280;65179;47.786;19.138;2023-12-28T02:19:43;101180.88;;;2.96;95.85
76352;BME280;65179;47.786;19.138;2023-12-28T02:22:10;101174.09;;;2.92;96.30
76352;BME280;65179;47.786;19.138;2023-12-28T02:25:18;101180.88;;;2.96;96.47
76352;BME280;65179;47.786;19.138;2023-12-28T02:27:44;101173.88;;;3.03;95.94
76352;BME280;65179;47.786;19.138;2023-12-28T02:30:12;101176.44;;;3.05;95.88
76352;BME280;65179;47.786;19.138;2023-12-28T02:35:16;101163.16;;;3.03;95.49
76352;BME280;65179;47.786;19.138;2023-12-28T02:37:43;101173.06;;;3.03;95.71
76352;BME280;65179;47.786;19.138;2023-12-28T02:40:12;101167.12;;;2.99;95.70
76352;BME280;65179;47.786;19.138;2023-12-28T02:42:40;101162.56;;;2.92;95.41
76352;BME280;65179;47.786;19.138;2023-12-28T02:45:06;101165.06;;;2.93;95.52
76352;BME280;65179;47.786;19.138;2023-12-28T02:47:31;101158.34;;;2.89;96.35
76352;BME280;65179;47.786;19.138;2023-12-28T02:49:57;101160.00;;;2.90;95.77
76352;BME280;65179;47.786;19.138;2023-12-28T02:52:24;101155.66;;;2.89;95.73
76352;BME280;65179;47.786;19.138;2023-12-28T02:54:50;101163.38;;;2.92;96.07
76352;BME280;65179;47.786;19.138;2023-12-28T02:57:15;101155.31;;;2.92;95.81
76352;BME280;65179;47.786;19.138;2023-12-28T02:59:44;101156.63;;;2.88;95.75
76352;BME280;65179;47.786;19.138;2023-12-28T03:02:10;101158.94;;;2.83;95.70
76352;BME280;65179;47.786;19.138;2023-12-28T03:04:35;101160.09;;;2.81;95.86
76352;BME280;65179;47.786;19.138;2023-12-28T03:07:01;101164.75;;;2.79;96.01
76352;BME280;65179;47.786;19.138;2023-12-28T03:09:26;101167.28;;;2.80;96.00
76352;BME280;65179;47.786;19.138;2023-12-28T03:11:52;101160.53;;;2.76;95.69
76352;BME280;65179;47.786;19.138;2023-12-28T03:14:17;101150.94;;;2.74;95.85
76352;BME280;65179;47.786;19.138;2023-12-28T03:16:43;101153.78;;;2.72;95.85
76352;BME280;65179;47.786;19.138;2023-12-28T03:19:08;101157.31;;;2.73;96.04
76352;BME280;65179;47.786;19.138;2023-12-28T03:21:39;101139.09;;;2.76;96.14
76352;BME280;65179;47.786;19.138;2023-12-28T03:24:05;101145.75;;;2.72;96.05
76352;BME280;65179;47.786;19.138;2023-12-28T03:26:30;101141.00;;;2.66;96.13
76352;BME280;65179;47.786;19.138;2023-12-28T03:28:55;101134.91;;;2.64;96.22
76352;BME280;65179;47.786;19.138;2023-12-28T03:31:21;101133.53;;;2.60;96.90
76352;BME280;65179;47.786;19.138;2023-12-28T03:33:46;101129.03;;;2.61;96.47
76352;BME280;65179;47.786;19.138;2023-12-28T03:36:18;101125.34;;;2.62;96.61
76352;BME280;65179;47.786;19.138;2023-12-28T03:38:44;101121.81;;;2.61;96.41
76352;BME280;65179;47.786;19.138;2023-12-28T03:41:19;101120.97;;;2.61;96.70
76352;BME280;65179;47.786;19.138;2023-12-28T03:43:46;101120.12;;;2.60;96.19
76352;BME280;65179;47.786;19.138;2023-12-28T03:46:12;101111.72;;;2.55;96.70
76352;BME280;65179;47.786;19.138;2023-12-28T03:48:37;101115.09;;;2.57;96.56
76352;BME280;65179;47.786;19.138;2023-12-28T03:51:06;101107.87;;;2.58;96.26
76352;BME280;65179;47.786;19.138;2023-12-28T03:53:31;101095.47;;;2.57;96.51
76352;BME280;65179;47.786;19.138;2023-12-28T03:56:00;101101.69;;;2.57;96.38
76352;BME280;65179;47.786;19.138;2023-12-28T03:58:25;101103.78;;;2.54;96.43
76352;BME280;65179;47.786;19.138;2023-12-28T04:00:52;101099.72;;;2.50;96.72
76352;BME280;65179;47.786;19.138;2023-12-28T04:03:17;101102.75;;;2.47;96.67
76352;BME280;65179;47.786;19.138;2023-12-28T04:05:43;101100.88;;;2.47;96.60
76352;BME280;65179;47.786;19.138;2023-12-28T04:08:09;101099.38;;;2.45;96.67
76352;BME280;65179;47.786;19.138;2023-12-28T04:10:34;101095.69;;;2.46;97.02
76352;BME280;65179;47.786;19.138;2023-12-28T04:13:03;101084.72;;;2.39;96.90
76352;BME280;65179;47.786;19.138;2023-12-28T04:15:29;101093.69;;;2.48;96.80
76352;BME280;65179;47.786;19.138;2023-12-28T04:17:55;101078.75;;;2.45;96.73
76352;BME280;65179;47.786;19.138;2023-12-28T04:20:20;101081.59;;;2.44;96.89
76352;BME280;65179;47.786;19.138;2023-12-28T04:22:46;101088.41;;;2.38;97.12
76352;BME280;65179;47.786;19.138;2023-12-28T04:25:11;101081.34;;;2.37;96.70
76352;BME280;65179;47.786;19.138;2023-12-28T04:27:41;101084.03;;;2.37;96.61
76352;BME280;65179;47.786;19.138;2023-12-28T04:30:07;101086.53;;;2.39;96.41
76352;BME280;65179;47.786;19.138;2023-12-28T04:32:33;101081.34;;;2.37;96.17
76352;BME280;65179;47.786;19.138;2023-12-28T04:34:58;101084.56;;;2.41;96.40
76352;BME280;65179;47.786;19.138;2023-12-28T04:37:24;101085.31;;;2.33;97.28
76352;BME280;65179;47.786;19.138;2023-12-28T04:39:52;101083.31;;;2.35;96.96
76352;BME280;65179;47.786;19.138;2023-12-28T04:42:18;101070.63;;;2.37;96.96
76352;BME280;65179;47.786;19.138;2023-12-28T04:44:43;101068.63;;;2.39;97.20
76352;BME280;65179;47.786;19.138;2023-12-28T04:47:09;101064.53;;;2.45;96.44
76352;BME280;65179;47.786;19.138;2023-12-28T04:49:34;101051.94;;;2.45;96.54
76352;BME280;65179;47.786;19.138;2023-12-28T04:51:59;101059.16;;;2.45;96.80
76352;BME280;65179;47.786;19.138;2023-12-28T04:54:25;101059.97;;;2.45;96.65
76352;BME280;65179;47.786;19.138;2023-12-28T04:56:51;101052.25;;;2.42;96.34
76352;BME280;65179;47.786;19.138;2023-12-28T04:59:16;101066.47;;;2.43;96.38
76352;BME280;65179;47.786;19.138;2023-12-28T05:01:42;101071.59;;;2.36;96.34
76352;BME280;65179;47.786;19.138;2023-12-28T05:04:08;101079.62;;;2.36;96.26
76352;BME280;65179;47.786;19.138;2023-12-28T05:06:33;101074.44;;;2.35;96.18
76352;BME280;65179;47.786;19.138;2023-12-28T05:08:59;101081.63;;;2.34;96.78
76352;BME280;65179;47.786;19.138;2023-12-28T05:11:24;101081.94;;;2.31;96.58
76352;BME280;65179;47.786;19.138;2023-12-28T05:13:50;101067.97;;;2.10;95.82
76352;BME280;65179;47.786;19.138;2023-12-28T05:16:15;101055.84;;;2.06;96.28
76352;BME280;65179;47.786;19.138;2023-12-28T05:18:40;101059.44;;;1.97;96.39
76352;BME280;65179;47.786;19.138;2023-12-28T05:21:06;101060.16;;;1.89;96.61
76352;BME280;65179;47.786;19.138;2023-12-28T05:23:31;101075.28;;;1.81;96.71
76352;BME280;65179;47.786;19.138;2023-12-28T05:25:57;101078.84;;;1.72;96.99
76352;BME280;65179;47.786;19.138;2023-12-28T05:28:22;101077.16;;;1.71;97.02
76352;BME280;65179;47.786;19.138;2023-12-28T05:30:48;101087.63;;;1.64;96.93
76352;BME280;65179;47.786;19.138;2023-12-28T05:33:13;101076.91;;;1.64;96.74
76352;BME280;65179;47.786;19.138;2023-12-28T05:35:38;101091.00;;;1.57;97.16
76352;BME280;65179;47.786;19.138;2023-12-28T05:38:04;101105.25;;;1.47;97.75
76352;BME280;65179;47.786;19.138;2023-12-28T05:40:30;101117.94;;;1.45;97.55
76352;BME280;65179;47.786;19.138;2023-12-28T05:42:57;101100.22;;;1.44;97.32
76352;BME280;65179;47.786;19.138;2023-12-28T05:45:43;101106.53;;;1.43;97.14
76352;BME280;65179;47.786;19.138;2023-12-28T05:48:08;101099.50;;;1.42;97.20
76352;BME280;65179;47.786;19.138;2023-12-28T05:50:34;101105.13;;;1.39;97.38
76352;BME280;65179;47.786;19.138;2023-12-28T05:52:59;101109.25;;;1.34;97.34
76352;BME280;65179;47.786;19.138;2023-12-28T05:55:25;101111.78;;;1.35;97.23
76352;BME280;65179;47.786;19.138;2023-12-28T05:57:50;101099.09;;;1.28;97.20
76352;BME280;65179;47.786;19.138;2023-12-28T06:00:16;101099.25;;;1.26;97.00
76352;BME280;65179;47.786;19.138;2023-12-28T06:02:41;101110.25;;;1.23;96.99
76352;BME280;65179;47.786;19.138;2023-12-28T06:05:07;101113.91;;;1.22;97.17
76352;BME280;65179;47.786;19.138;2023-12-28T06:07:32;101108.53;;;1.22;96.99
76352;BME280;65179;47.786;19.138;2023-12-28T06:09:58;101098.69;;;1.13;97.25
76352;BME280;65179;47.786;19.138;2023-12-28T06:12:24;101103.50;;;1.10;96.88
76352;BME280;65179;47.786;19.138;2023-12-28T06:14:49;101101.41;;;1.04;97.00
76352;BME280;65179;47.786;19.138;2023-12-28T06:17:15;101097.59;;;0.97;96.92
76352;BME280;65179;47.786;19.138;2023-12-28T06:19:41;101102.38;;;1.03;97.19
76352;BME280;65179;47.786;19.138;2023-12-28T06:22:06;101106.59;;;1.05;97.23
76352;BME280;65179;47.786;19.138;2023-12-28T06:24:32;101106.59;;;1.05;96.94
76352;BME280;65179;47.786;19.138;2023-12-28T06:26:57;101107.28;;;1.07;96.59
76352;BME280;65179;47.786;19.138;2023-12-28T06:29:23;101097.16;;;1.01;97.51
76352;BME280;65179;47.786;19.138;2023-12-28T06:31:48;101101.50;;;1.02;97.12
76352;BME280;65179;47.786;19.138;2023-12-28T06:34:14;101104.87;;;1.04;97.38
76352;BME280;65179;47.786;19.138;2023-12-28T06:36:41;101107.28;;;0.98;97.51
76352;BME280;65179;47.786;19.138;2023-12-28T06:39:08;101100.94;;;0.89;97.62
76352;BME280;65179;47.786;19.138;2023-12-28T06:41:33;101111.37;;;0.92;97.57
76352;BME280;65179;47.786;19.138;2023-12-28T06:43:59;101110.69;;;0.90;97.28
76352;BME280;65179;47.786;19.138;2023-12-28T06:46:24;101110.25;;;0.75;98.33
76352;BME280;65179;47.786;19.138;2023-12-28T06:48:50;101120.09;;;0.85;97.73
76352;BME280;65179;47.786;19.138;2023-12-28T06:51:19;101116.19;;;0.89;97.39
76352;BME280;65179;47.786;19.138;2023-12-28T06:53:46;101109.25;;;0.76;97.57
76352;BME280;65179;47.786;19.138;2023-12-28T06:56:11;101110.09;;;0.67;98.21
76352;BME280;65179;47.786;19.138;2023-12-28T06:58:37;101107.28;;;0.69;97.75
76352;BME280;65179;47.786;19.138;2023-12-28T07:01:03;101113.19;;;0.72;97.78
76352;BME280;65179;47.786;19.138;2023-12-28T07:03:29;101122.22;;;0.81;97.82
76352;BME280;65179;47.786;19.138;2023-12-28T07:05:59;101126.59;;;0.82;97.12
76352;BME280;65179;47.786;19.138;2023-12-28T07:08:24;101125.44;;;0.94;97.64
76352;BME280;65179;47.786;19.138;2023-12-28T07:10:50;101127.69;;;0.89;97.49
76352;BME280;65179;47.786;19.138;2023-12-28T07:13:16;101139.66;;;0.85;98.43
76352;BME280;65179;47.786;19.138;2023-12-28T07:15:41;101138.37;;;0.89;98.05
76352;BME280;65179;47.786;19.138;2023-12-28T07:18:06;101147.25;;;0.90;98.36
76352;BME280;65179;47.786;19.138;2023-12-28T07:20:32;101153.72;;;0.87;98.40
76352;BME280;65179;47.786;19.138;2023-12-28T07:22:57;101155.13;;;0.91;98.63
76352;BME280;65179;47.786;19.138;2023-12-28T07:25:23;101156.41;;;0.97;98.22
76352;BME280;65179;47.786;19.138;2023-12-28T07:27:48;101156.56;;;0.95;97.97
76352;BME280;65179;47.786;19.138;2023-12-28T07:30:13;101145.16;;;1.03;98.24
76352;BME280;65179;47.786;19.138;2023-12-28T07:32:41;101151.63;;;1.10;97.78
76352;BME280;65179;47.786;19.138;2023-12-28T07:35:19;101141.50;;;1.13;97.57
76352;BME280;65179;47.786;19.138;2023-12-28T07:37:44;101135.56;;;1.19;97.63
76352;BME280;65179;47.786;19.138;2023-12-28T07:40:12;101139.38;;;1.26;97.50
76352;BME280;65179;47.786;19.138;2023-12-28T07:42:40;101142.06;;;1.36;97.09
76352;BME280;65179;47.786;19.138;2023-12-28T07:45:06;101136.97;;;1.42;97.05
76352;BME280;65179;47.786;19.138;2023-12-28T07:47:31;101143.13;;;1.52;96.88
76352;BME280;65179;47.786;19.138;2023-12-28T07:49:56;101138.22;;;1.58;97.09
76352;BME280;65179;47.786;19.138;2023-12-28T07:52:22;101141.44;;;1.61;96.86
76352;BME280;65179;47.786;19.138;2023-12-28T07:54:47;101129.59;;;1.64;96.96
76352;BME280;65179;47.786;19.138;2023-12-28T07:57:23;101131.53;;;1.71;96.89
76352;BME280;65179;47.786;19.138;2023-12-28T07:59:49;101138.31;;;1.75;98.08
76352;BME280;65179;47.786;19.138;2023-12-28T08:02:14;101132.53;;;1.80;97.87
76352;BME280;65179;47.786;19.138;2023-12-28T08:04:39;101134.63;;;1.86;97.28
76352;BME280;65179;47.786;19.138;2023-12-28T08:07:05;101130.22;;;1.85;97.31
76352;BME280;65179;47.786;19.138;2023-12-28T08:09:32;101139.09;;;1.95;97.20
76352;BME280;65179;47.786;19.138;2023-12-28T08:12:00;101142.03;;;2.01;96.91
76352;BME280;65179;47.786;19.138;2023-12-28T08:14:25;101137.22;;;2.05;96.78
76352;BME280;65179;47.786;19.138;2023-12-28T08:16:54;101150.28;;;2.17;96.60
76352;BME280;65179;47.786;19.138;2023-12-28T08:19:22;101148.53;;;2.26;96.51
76352;BME280;65179;47.786;19.138;2023-12-28T08:21:51;101144.44;;;2.32;96.50
76352;BME280;65179;47.786;19.138;2023-12-28T08:24:16;101138.31;;;2.39;96.09
76352;BME280;65179;47.786;19.138;2023-12-28T08:26:46;101142.09;;;2.46;96.60
76352;BME280;65179;47.786;19.138;2023-12-28T08:29:14;101152.00;;;2.63;96.66
76352;BME280;65179;47.786;19.138;2023-12-28T08:31:49;101157.16;;;2.74;95.83
76352;BME280;65179;47.786;19.138;2023-12-28T08:34:14;101161.78;;;2.99;95.01
76352;BME280;65179;47.786;19.138;2023-12-28T08:36:40;101160.69;;;3.10;94.41
76352;BME280;65179;47.786;19.138;2023-12-28T08:39:15;101158.34;;;3.25;93.83
76352;BME280;65179;47.786;19.138;2023-12-28T08:41:48;101150.56;;;3.39;93.81
76352;BME280;65179;47.786;19.138;2023-12-28T08:44:28;101147.09;;;3.47;93.09
76352;BME280;65179;47.786;19.138;2023-12-28T08:46:54;101149.47;;;3.50;93.08
76352;BME280;65179;47.786;19.138;2023-12-28T08:49:24;101137.22;;;3.47;93.44
76352;BME280;65179;47.786;19.138;2023-12-28T08:51:53;101140.28;;;3.78;91.83
76352;BME280;65179;47.786;19.138;2023-12-28T08:54:19;101145.03;;;3.84;91.46
76352;BME280;65179;47.786;19.138;2023-12-28T08:56:52;101140.34;;;3.86;91.39
76352;BME280;65179;47.786;19.138;2023-12-28T08:59:30;101137.38;;;3.97;90.89
76352;BME280;65179;47.786;19.138;2023-12-28T09:01:56;101148.44;;;4.20;90.62
76352;BME280;65179;47.786;19.138;2023-12-28T09:04:21;101149.72;;;4.41;89.88
76352;BME280;65179;47.786;19.138;2023-12-28T09:07:02;101130.19;;;4.89;88.53
76352;BME280;65179;47.786;19.138;2023-12-28T09:09:28;101140.50;;;5.26;86.31
76352;BME280;65179;47.786;19.138;2023-12-28T09:11:59;101148.38;;;5.68;84.17
76352;BME280;65179;47.786;19.138;2023-12-28T09:14:28;101153.34;;;6.27;84.02
76352;BME280;65179;47.786;19.138;2023-12-28T09:17:00;101139.19;;;6.64;78.75
76352;BME280;65179;47.786;19.138;2023-12-28T09:19:25;101130.16;;;7.10;76.33
76352;BME280;65179;47.786;19.138;2023-12-28T09:22:02;101126.22;;;7.35;77.55
76352;BME280;65179;47.786;19.138;2023-12-28T09:24:37;101119.00;;;7.50;77.44
76352;BME280;65179;47.786;19.138;2023-12-28T09:27:05;101114.53;;;7.20;73.68
76352;BME280;65179;47.786;19.138;2023-12-28T09:29:34;101111.75;;;7.28;74.46
76352;BME280;65179;47.786;19.138;2023-12-28T09:35:43;101100.97;;;7.80;74.16
76352;BME280;65179;47.786;19.138;2023-12-28T09:38:10;101088.84;;;7.91;72.53
76352;BME280;65179;47.786;19.138;2023-12-28T09:40:36;101085.44;;;8.26;71.40
76352;BME280;65179;47.786;19.138;2023-12-28T09:43:25;101078.47;;;8.67;71.80
76352;BME280;65179;47.786;19.138;2023-12-28T09:45:51;101081.50;;;8.14;70.84
76352;BME280;65179;47.786;19.138;2023-12-28T09:48:48;101069.41;;;8.60;67.98
76352;BME280;65179;47.786;19.138;2023-12-28T09:54:36;101066.59;;;9.32;68.84
76352;BME280;65179;47.786;19.138;2023-12-28T09:57:02;101063.13;;;9.16;67.68
76352;BME280;65179;47.786;19.138;2023-12-28T09:59:28;101051.22;;;8.90;69.07
76352;BME280;65179;47.786;19.138;2023-12-28T10:02:00;101059.12;;;8.91;67.03
76352;BME280;65179;47.786;19.138;2023-12-28T10:04:28;101046.87;;;8.95;66.69
76352;BME280;65179;47.786;19.138;2023-12-28T10:07:00;101049.72;;;8.66;67.58
76352;BME280;65179;47.786;19.138;2023-12-28T10:09:25;101056.16;;;8.86;66.65
76352;BME280;65179;47.786;19.138;2023-12-28T10:11:58;101039.09;;;9.07;65.68
76352;BME280;65179;47.786;19.138;2023-12-28T10:14:24;101038.28;;;9.96;65.11
76352;BME280;65179;47.786;19.138;2023-12-28T10:16:49;101031.59;;;10.26;64.15
76352;BME280;65179;47.786;19.138;2023-12-28T10:19:14;101036.50;;;10.63;62.95
76352;BME280;65179;47.786;19.138;2023-12-28T10:21:40;101040.22;;;10.49;62.83
76352;BME280;65179;47.786;19.138;2023-12-28T10:24:06;101026.94;;;10.68;62.75
76352;BME280;65179;47.786;19.138;2023-12-28T10:26:36;101034.28;;;10.87;60.61
76352;BME280;65179;47.786;19.138;2023-12-28T10:29:01;101018.16;;;10.92;62.35
76352;BME280;65179;47.786;19.138;2023-12-28T10:31:30;101021.75;;;10.99;61.08
76352;BME280;65179;47.786;19.138;2023-12-28T10:33:59;101020.69;;;11.52;59.92
76352;BME280;65179;47.786;19.138;2023-12-28T10:36:27;101013.37;;;11.59;58.33
76352;BME280;65179;47.786;19.138;2023-12-28T10:38:58;101021.97;;;11.76;58.82
76352;BME280;65179;47.786;19.138;2023-12-28T10:41:30;101019.75;;;12.17;57.93
76352;BME280;65179;47.786;19.138;2023-12-28T10:44:05;101007.28;;;11.90;55.26
76352;BME280;65179;47.786;19.138;2023-12-28T10:46:32;101009.81;;;12.36;54.38
76352;BME280;65179;47.786;19.138;2023-12-28T10:49:00;100997.19;;;12.03;57.45
76352;BME280;65179;47.786;19.138;2023-12-28T10:51:30;100994.78;;;11.04;58.29
76352;BME280;65179;47.786;19.138;2023-12-28T10:56:47;100996.41;;;11.83;57.66
76352;BME280;65179;47.786;19.138;2023-12-28T10:59:34;100993.94;;;11.42;57.06
76352;BME280;65179;47.786;19.138;2023-12-28T11:02:01;100985.38;;;11.13;58.71
76352;BME280;65179;47.786;19.138;2023-12-28T11:04:41;100982.19;;;11.81;56.66
76352;BME280;65179;47.786;19.138;2023-12-28T11:07:13;100970.09;;;10.99;58.61
76352;BME280;65179;47.786;19.138;2023-12-28T11:09:41;100971.97;;;11.44;57.73
76352;BME280;65179;47.786;19.138;2023-12-28T11:12:08;100960.75;;;12.73;55.07
76352;BME280;65179;47.786;19.138;2023-12-28T11:14:36;100958.59;;;13.13;54.40
76352;BME280;65179;47.786;19.138;2023-12-28T11:17:04;100955.81;;;12.64;54.70
76352;BME280;65179;47.786;19.138;2023-12-28T11:19:30;100951.72;;;12.48;53.66
76352;BME280;65179;47.786;19.138;2023-12-28T11:21:57;100946.91;;;12.12;56.49
76352;BME280;65179;47.786;19.138;2023-12-28T11:24:29;100942.16;;;12.33;54.44
76352;BME280;65179;47.786;19.138;2023-12-28T11:26:56;100938.44;;;11.63;55.84
76352;BME280;65179;47.786;19.138;2023-12-28T11:29:22;100938.25;;;11.71;56.71
76352;BME280;65179;47.786;19.138;2023-12-28T11:31:54;100932.28;;;12.69;54.83
76352;BME280;65179;47.786;19.138;2023-12-28T11:34:25;100924.44;;;13.53;53.16
76352;BME280;65179;47.786;19.138;2023-12-28T11:36:53;100926.94;;;13.73;52.50
76352;BME280;65179;47.786;19.138;2023-12-28T11:39:36;100931.06;;;14.30;50.73
76352;BME280;65179;47.786;19.138;2023-12-28T11:42:07;100929.69;;;14.39;49.82
76352;BME280;65179;47.786;19.138;2023-12-28T11:44:43;100922.66;;;14.61;49.80
76352;BME280;65179;47.786;19.138;2023-12-28T11:47:14;100904.44;;;15.19;48.48
76352;BME280;65179;47.786;19.138;2023-12-28T11:49:40;100896.31;;;14.78;49.58
76352;BME280;65179;47.786;19.138;2023-12-28T11:52:25;100894.41;;;14.90;49.83
76352;BME280;65179;47.786;19.138;2023-12-28T11:54:51;100894.25;;;13.85;51.58
76352;BME280;65179;47.786;19.138;2023-12-28T11:57:17;100895.31;;;14.31;50.72
76352;BME280;65179;47.786;19.138;2023-12-28T11:59:45;100900.38;;;14.87;49.06
76352;BME280;65179;47.786;19.138;2023-12-28T12:02:11;100898.56;;;15.16;48.12
76352;BME280;65179;47.786;19.138;2023-12-28T12:04:36;100894.66;;;15.24;48.31
76352;BME280;65179;47.786;19.138;2023-12-28T12:07:03;100891.69;;;15.02;49.25
76352;BME280;65179;47.786;19.138;2023-12-28T12:09:32;100896.75;;;14.75;49.58
76352;BME280;65179;47.786;19.138;2023-12-28T12:12:04;100888.16;;;14.60;50.16
76352;BME280;65179;47.786;19.138;2023-12-28T12:14:30;100885.16;;;14.91;49.31
76352;BME280;65179;47.786;19.138;2023-12-28T12:16:58;100881.22;;;15.57;48.40
76352;BME280;65179;47.786;19.138;2023-12-28T12:19:24;100867.44;;;15.17;48.55
76352;BME280;65179;47.786;19.138;2023-12-28T12:21:54;100857.72;;;14.45;50.28
76352;BME280;65179;47.786;19.138;2023-12-28T12:24:21;100864.00;;;14.98;48.84
76352;BME280;65179;47.786;19.138;2023-12-28T12:26:47;100860.28;;;14.93;48.95
76352;BME280;65179;47.786;19.138;2023-12-28T12:29:15;100859.31;;;14.76;48.51
76352;BME280;65179;47.786;19.138;2023-12-28T12:31:42;100858.19;;;14.42;49.25
76352;BME280;65179;47.786;19.138;2023-12-28T12:34:10;100860.69;;;14.14;50.02
76352;BME280;65179;47.786;19.138;2023-12-28T12:36:36;100862.84;;;13.21;51.47
76352;BME280;65179;47.786;19.138;2023-12-28T12:39:02;100871.34;;;12.33;54.25
76352;BME280;65179;47.786;19.138;2023-12-28T12:41:32;100871.34;;;12.33;54.67
76352;BME280;65179;47.786;19.138;2023-12-28T12:43:59;100861.50;;;12.00;55.33
76352;BME280;65179;47.786;19.138;2023-12-28T12:46:24;100864.75;;;11.84;56.19
76352;BME280;65179;47.786;19.138;2023-12-28T12:49:05;100870.19;;;10.88;59.15
76352;BME280;65179;47.786;19.138;2023-12-28T12:51:30;100853.87;;;10.88;59.33
76352;BME280;65179;47.786;19.138;2023-12-28T12:53:59;100863.94;;;10.68;59.66
76352;BME280;65179;47.786;19.138;2023-12-28T12:59:24;100865.81;;;10.47;61.27
76352;BME280;65179;47.786;19.138;2023-12-28T13:01:53;100859.50;;;10.14;62.35
76352;BME280;65179;47.786;19.138;2023-12-28T13:04:19;100858.56;;;9.94;62.29